Nucla, Colorado
Current Conditions -  °F | °C
As of 7:35 PM on Friday 28 Nov 2014 (Local Time) from KAIB Reporting Station
Clear Clear  
Wind Chill:   Ceiling: Unl
Heat Index:   Visibility: 10mi
Dew Point: -10°   Wind: 0mph
Humidity: 29%   Direction: NA
Pressure: 30.07"   Gusts: NA
Location:  38.27°N, 108.55°W
Report Text: KAIB 290235Z AUTO 00000KT 10SM CLR 07/M10 A3007 RMK AO2
Loading
Personal Weather Stations






























Interactive Weather Map New forecast layout! Learn more

10-Day Weather Forecast

Advertisements
Track Severe Weather on mobile